createdAt,value
2023-01-26T00:00:12.146Z,-3.97
2023-01-26T00:02:15.004Z,-3.97
2023-01-26T00:04:17.676Z,-4.03
2023-01-26T00:06:21.884Z,-4.03
2023-01-26T00:08:24.477Z,-4.00
2023-01-26T00:10:27.478Z,-4.03
2023-01-26T00:12:30.134Z,-4.05
2023-01-26T00:14:50.101Z,-4.04
2023-01-26T00:16:54.015Z,-4.05
2023-01-26T00:18:56.650Z,-4.06
2023-01-26T00:21:01.431Z,-4.07
2023-01-26T00:23:04.239Z,-4.04
2023-01-26T00:25:07.121Z,-4.06
2023-01-26T00:27:09.738Z,-4.08
2023-01-26T00:29:12.328Z,-4.11
2023-01-26T00:31:17.334Z,-4.12
2023-01-26T00:33:19.950Z,-4.11
2023-01-26T00:35:22.678Z,-4.10
2023-01-26T00:37:25.274Z,-4.07
2023-01-26T00:39:27.916Z,-4.07
2023-01-26T00:41:49.447Z,-4.13
2023-01-26T00:43:52.123Z,-4.12
2023-01-26T00:45:54.809Z,-4.14
2023-01-26T00:47:57.487Z,-4.13
2023-01-26T00:50:00.053Z,-4.13
2023-01-26T00:52:03.349Z,-4.19
2023-01-26T00:54:06.357Z,-4.15
2023-01-26T00:56:09.080Z,-4.18
2023-01-26T00:58:12.043Z,-4.15
2023-01-26T01:00:16.886Z,-4.18
2023-01-26T01:02:19.578Z,-4.19
2023-01-26T01:04:22.463Z,-4.20
2023-01-26T01:06:25.157Z,-4.20
2023-01-26T01:08:28.004Z,-4.23
2023-01-26T01:10:30.799Z,-4.21
2023-01-26T01:12:33.337Z,-4.21
2023-01-26T01:14:36.008Z,-4.23
2023-01-26T01:16:38.759Z,-4.23
2023-01-26T01:18:41.414Z,-4.21
2023-01-26T01:20:43.969Z,-4.25
2023-01-26T01:22:46.834Z,-4.23
2023-01-26T01:24:49.481Z,-4.22
2023-01-26T01:26:52.124Z,-4.23
2023-01-26T01:28:58.470Z,-4.22
2023-01-26T01:31:08.476Z,-4.22
2023-01-26T01:33:11.179Z,-4.25
2023-01-26T01:35:13.769Z,-4.29
2023-01-26T01:37:17.565Z,-4.29
2023-01-26T01:39:20.158Z,-4.33
2023-01-26T01:41:23.493Z,-4.32
2023-01-26T01:43:27.551Z,-4.31
2023-01-26T01:45:49.287Z,-4.32
2023-01-26T01:47:57.439Z,-4.33
2023-01-26T01:50:00.053Z,-4.33
2023-01-26T01:52:05.971Z,-4.36
2023-01-26T01:54:15.660Z,-4.34
2023-01-26T01:56:23.551Z,-4.38
2023-01-26T01:58:30.114Z,-4.39
2023-01-26T02:00:32.907Z,-4.42
2023-01-26T02:02:37.803Z,-4.42
2023-01-26T02:04:40.575Z,-4.45
2023-01-26T02:06:51.593Z,-4.43
2023-01-26T02:08:56.161Z,-4.45
2023-01-26T02:11:02.627Z,-4.50
2023-01-26T02:13:06.578Z,-4.49
2023-01-26T02:15:09.462Z,-4.53
2023-01-26T02:17:12.065Z,-4.54
2023-01-26T02:19:33.156Z,-4.53
2023-01-26T02:21:35.819Z,-4.54
2023-01-26T02:23:56.581Z,-4.56
2023-01-26T02:26:15.657Z,-4.61
2023-01-26T02:28:19.827Z,-4.65
2023-01-26T02:30:23.636Z,-4.73
2023-01-26T02:32:28.470Z,-4.74
2023-01-26T02:34:31.133Z,-4.73
2023-01-26T02:36:34.609Z,-4.74
2023-01-26T02:38:49.223Z,-4.76
2023-01-26T02:40:55.091Z,-4.82
2023-01-26T02:42:57.794Z,-4.82
2023-01-26T02:45:00.511Z,-4.82
2023-01-26T02:47:13.383Z,-4.82
2023-01-26T02:49:34.419Z,-4.80
2023-01-26T02:51:37.044Z,-4.84
2023-01-26T02:53:39.848Z,-4.91
2023-01-26T02:55:42.424Z,-4.86
2023-01-26T02:57:46.156Z,-4.88
2023-01-26T02:59:48.874Z,-4.88
2023-01-26T03:01:54.326Z,-4.94
2023-01-26T03:03:57.034Z,-4.96
2023-01-26T03:05:59.584Z,-4.99
2023-01-26T03:08:02.248Z,-4.97
2023-01-26T03:10:06.452Z,-5.00
2023-01-26T03:12:09.271Z,-5.04
2023-01-26T03:14:13.715Z,-5.10
2023-01-26T03:16:18.731Z,-5.19
2023-01-26T03:18:41.794Z,-5.23
2023-01-26T03:21:02.819Z,-5.29
2023-01-26T03:23:27.262Z,-5.41
2023-01-26T03:25:48.591Z,-5.44
2023-01-26T03:27:51.148Z,-5.52
2023-01-26T03:29:55.701Z,-5.55
2023-01-26T03:32:01.666Z,-5.63
2023-01-26T03:34:04.357Z,-5.67
2023-01-26T03:36:07.281Z,-5.70
2023-01-26T03:38:09.961Z,-5.76
2023-01-26T03:40:31.811Z,-5.80
2023-01-26T03:42:53.752Z,-5.85
2023-01-26T03:45:14.649Z,-5.97
2023-01-26T03:47:35.769Z,-6.07
2023-01-26T03:49:56.663Z,-6.07
2023-01-26T03:52:17.632Z,-6.14
2023-01-26T03:54:38.911Z,-6.18
2023-01-26T03:56:41.550Z,-6.30
2023-01-26T03:58:45.696Z,-6.34
2023-01-26T04:00:50.104Z,-6.32
2023-01-26T04:03:11.123Z,-6.36
2023-01-26T04:05:32.260Z,-6.41
2023-01-26T04:07:53.280Z,-6.41
2023-01-26T04:09:55.900Z,-6.49
2023-01-26T04:11:59.206Z,-6.51
2023-01-26T04:14:20.239Z,-6.57
2023-01-26T04:16:41.547Z,-6.56
2023-01-26T04:19:02.748Z,-6.58
2023-01-26T04:21:24.628Z,-6.59
2023-01-26T04:23:27.177Z,-6.62
2023-01-26T04:25:29.872Z,-6.63
2023-01-26T04:27:35.269Z,-6.68
2023-01-26T04:29:37.903Z,-6.70
2023-01-26T04:31:41.912Z,-6.71
2023-01-26T04:33:44.799Z,-6.73
2023-01-26T04:35:47.418Z,-6.73
2023-01-26T04:37:50.069Z,-6.76
2023-01-26T04:39:52.817Z,-6.76
2023-01-26T04:41:55.493Z,-6.77
2023-01-26T04:43:58.320Z,-6.76
2023-01-26T04:46:03.736Z,-6.78
2023-01-26T04:48:06.379Z,-6.81
2023-01-26T04:50:10.314Z,-6.81
2023-01-26T04:52:13.911Z,-6.80
2023-01-26T04:54:16.539Z,-6.82
2023-01-26T04:56:26.193Z,-6.83
2023-01-26T04:58:28.840Z,-6.81
2023-01-26T05:00:31.736Z,-6.81
2023-01-26T05:02:34.419Z,-6.82
2023-01-26T05:04:37.125Z,-6.82
2023-01-26T05:06:40.024Z,-6.82
2023-01-26T05:08:43.027Z,-6.83
2023-01-26T05:10:46.686Z,-6.83
2023-01-26T05:12:49.389Z,-6.81
2023-01-26T05:14:52.010Z,-6.77
2023-01-26T05:16:54.691Z,-6.72
2023-01-26T05:18:57.373Z,-6.69
2023-01-26T05:20:59.990Z,-6.66
2023-01-26T05:23:02.775Z,-6.59
2023-01-26T05:25:05.701Z,-6.55
2023-01-26T05:27:23.534Z,-6.51
2023-01-26T05:29:26.208Z,-6.41
2023-01-26T05:31:28.864Z,-6.33
2023-01-26T05:33:31.507Z,-6.30
2023-01-26T05:35:34.882Z,-6.27
2023-01-26T05:37:38.133Z,-6.23
2023-01-26T05:39:40.730Z,-6.23
2023-01-26T05:41:43.308Z,-6.21
2023-01-26T05:43:45.944Z,-6.19
2023-01-26T05:45:48.708Z,-6.23
2023-01-26T05:47:51.447Z,-6.25
2023-01-26T05:49:54.546Z,-6.28
2023-01-26T05:51:57.513Z,-6.31
2023-01-26T05:54:00.129Z,-6.30
2023-01-26T05:56:02.753Z,-6.31
2023-01-26T05:58:05.441Z,-6.27
2023-01-26T06:00:10.374Z,-6.25
2023-01-26T06:02:13.460Z,-6.21
2023-01-26T06:04:16.026Z,-6.17
2023-01-26T06:06:18.655Z,-6.06
2023-01-26T06:08:21.476Z,-5.99
2023-01-26T06:10:24.190Z,-6.00
2023-01-26T06:12:31.695Z,-5.97
2023-01-26T06:14:34.552Z,-5.88
2023-01-26T06:16:37.142Z,-5.89
2023-01-26T06:18:39.867Z,-5.85
2023-01-26T06:20:44.275Z,-5.84
2023-01-26T06:22:47.210Z,-5.83
2023-01-26T06:24:49.889Z,-5.84
2023-01-26T06:26:52.599Z,-5.85
2023-01-26T06:28:55.375Z,-5.82
2023-01-26T06:31:04.963Z,-5.76
2023-01-26T06:33:07.713Z,-5.70
2023-01-26T06:35:10.353Z,-5.64
2023-01-26T06:37:14.163Z,-5.57
2023-01-26T06:39:17.469Z,-5.51
2023-01-26T06:41:20.283Z,-5.44
2023-01-26T06:43:23.202Z,-5.34
2023-01-26T06:45:25.867Z,-5.24
2023-01-26T06:47:28.472Z,-5.13
2023-01-26T06:49:31.117Z,-5.06
2023-01-26T06:52:10.943Z,-4.90
2023-01-26T06:54:14.595Z,-4.73
2023-01-26T06:56:17.344Z,-4.57
2023-01-26T06:58:20.074Z,-4.47
2023-01-26T07:00:23.067Z,-4.34
2023-01-26T07:02:25.897Z,-4.28
2023-01-26T07:04:28.581Z,-4.27
2023-01-26T07:06:31.564Z,-4.23
2023-01-26T07:08:34.318Z,-4.31
2023-01-26T07:10:37.933Z,-4.27
2023-01-26T07:12:45.971Z,-4.21
2023-01-26T07:14:51.130Z,-4.16
2023-01-26T07:16:53.805Z,-4.11
2023-01-26T07:18:57.211Z,-4.06
2023-01-26T07:21:07.787Z,-3.89
2023-01-26T07:23:11.425Z,-3.88
2023-01-26T07:25:14.188Z,-3.78
2023-01-26T07:27:16.876Z,-3.71
2023-01-26T07:29:19.727Z,-3.68
2023-01-26T07:31:22.552Z,-3.68
2023-01-26T07:33:25.684Z,-3.71
2023-01-26T07:35:29.920Z,-3.68
2023-01-26T07:37:32.534Z,-3.75
2023-01-26T07:39:35.221Z,-3.77
2023-01-26T07:41:37.811Z,-3.77
2023-01-26T07:43:42.307Z,-3.79
2023-01-26T07:45:52.977Z,-3.78
2023-01-26T07:47:56.235Z,-3.76
2023-01-26T07:49:58.849Z,-3.71
2023-01-26T07:52:03.181Z,-3.70
2023-01-26T07:54:08.226Z,-3.72
2023-01-26T07:56:13.365Z,-3.70
2023-01-26T07:58:18.195Z,-3.62
2023-01-26T08:00:20.991Z,-3.61
2023-01-26T08:02:23.698Z,-3.55
2023-01-26T08:04:26.302Z,-3.46
2023-01-26T08:06:28.867Z,-3.43
2023-01-26T08:08:31.834Z,-3.39
2023-01-26T08:10:34.496Z,-3.34
2023-01-26T08:12:40.876Z,-3.27
2023-01-26T08:14:47.101Z,-3.32
2023-01-26T08:16:50.018Z,-3.27
2023-01-26T08:18:52.685Z,-3.23
2023-01-26T08:20:56.797Z,-3.17
2023-01-26T08:23:00.517Z,-3.05
2023-01-26T08:25:03.361Z,-2.98
2023-01-26T08:27:06.106Z,-2.87
2023-01-26T08:29:08.795Z,-2.79
2023-01-26T08:31:14.541Z,-2.61
2023-01-26T08:33:17.218Z,-2.60
2023-01-26T08:35:19.762Z,-2.43
2023-01-26T08:37:22.426Z,-2.33
2023-01-26T08:39:25.111Z,-2.34
2023-01-26T08:41:27.887Z,-2.28
2023-01-26T08:43:31.073Z,-2.22
2023-01-26T08:45:33.809Z,-2.18
2023-01-26T08:47:36.478Z,-2.15
2023-01-26T08:49:39.101Z,-2.18
2023-01-26T08:51:41.739Z,-2.27
2023-01-26T08:53:44.549Z,-2.20
2023-01-26T08:55:47.185Z,-2.20
2023-01-26T08:57:52.863Z,-2.21
2023-01-26T08:59:55.481Z,-2.23
2023-01-26T09:01:58.276Z,-2.20
2023-01-26T09:04:01.908Z,-2.23
2023-01-26T09:06:06.342Z,-2.23
2023-01-26T09:08:10.606Z,-2.19
2023-01-26T09:10:13.769Z,-2.18
2023-01-26T09:12:16.540Z,-2.17
2023-01-26T09:14:19.206Z,-2.25
2023-01-26T09:16:23.152Z,-2.44
2023-01-26T09:18:25.796Z,-2.47
2023-01-26T09:20:28.507Z,-2.42
2023-01-26T09:22:31.298Z,-2.45
2023-01-26T09:24:33.883Z,-2.38
2023-01-26T09:26:36.809Z,-2.28
2023-01-26T09:28:39.633Z,-2.19
2023-01-26T09:30:42.429Z,-2.13
2023-01-26T09:32:45.171Z,-1.97
2023-01-26T09:34:47.963Z,-1.83
2023-01-26T09:36:50.557Z,-1.67
2023-01-26T09:38:54.329Z,-1.65
2023-01-26T09:41:06.398Z,-1.63
2023-01-26T09:43:21.165Z,-1.67
2023-01-26T09:45:44.425Z,-1.58
2023-01-26T09:48:28.580Z,-1.52
2023-01-26T09:50:47.854Z,-1.47
2023-01-26T09:52:56.319Z,-1.35
2023-01-26T09:55:01.481Z,-1.30
2023-01-26T09:57:28.381Z,-1.21
2023-01-26T09:59:51.388Z,-1.12
2023-01-26T10:02:07.918Z,-0.99
2023-01-26T10:04:18.706Z,-1.12
2023-01-26T10:06:29.120Z,-1.04
2023-01-26T10:08:31.899Z,-1.00
2023-01-26T10:10:39.297Z,-0.99
2023-01-26T10:12:41.877Z,-1.05
2023-01-26T10:14:52.835Z,-1.11
2023-01-26T10:16:55.485Z,-1.20
2023-01-26T10:19:06.622Z,-1.32
2023-01-26T10:21:10.811Z,-1.43
2023-01-26T10:23:27.931Z,-1.48
2023-01-26T10:25:42.343Z,-1.52
2023-01-26T10:27:48.624Z,-1.53
2023-01-26T10:29:51.942Z,-1.58
2023-01-26T10:31:55.661Z,-1.60
2023-01-26T10:34:03.466Z,-1.64
2023-01-26T10:36:07.768Z,-1.68
2023-01-26T10:38:38.331Z,-1.65
2023-01-26T10:40:45.610Z,-1.63
2023-01-26T10:42:59.498Z,-1.68
2023-01-26T10:45:24.982Z,-1.76
2023-01-26T10:47:28.339Z,-1.80
2023-01-26T10:49:30.946Z,-1.88
2023-01-26T10:51:36.133Z,-1.91
2023-01-26T10:53:38.701Z,-2.04
2023-01-26T10:55:41.696Z,-2.00
2023-01-26T10:57:44.491Z,-1.98
2023-01-26T11:00:08.396Z,-1.97
2023-01-26T11:02:19.576Z,-1.98
2023-01-26T11:04:28.203Z,-1.93
2023-01-26T11:06:32.160Z,-1.83
2023-01-26T11:08:37.267Z,-1.85
2023-01-26T11:10:51.455Z,-1.90
2023-01-26T11:13:14.397Z,-2.01
2023-01-26T11:15:22.636Z,-1.96
2023-01-26T11:17:31.205Z,-1.99
2023-01-26T11:20:07.678Z,-2.01
2023-01-26T11:22:18.178Z,-2.02
2023-01-26T11:24:32.492Z,-1.98
2023-01-26T11:26:46.838Z,-1.98
2023-01-26T11:28:49.384Z,-1.97
2023-01-26T11:31:23.325Z,-2.01
2023-01-26T11:33:34.690Z,-1.98
2023-01-26T11:35:57.553Z,-2.00
2023-01-26T11:38:21.025Z,-2.06
2023-01-26T11:40:44.988Z,-2.04
2023-01-26T11:42:53.328Z,-2.03
2023-01-26T11:45:04.819Z,-2.02
2023-01-26T11:47:32.272Z,-2.01
2023-01-26T11:49:34.780Z,-2.05
2023-01-26T11:51:56.055Z,-2.04
2023-01-26T11:54:42.928Z,-2.02
2023-01-26T11:57:28.811Z,-2.03
2023-01-26T11:59:38.760Z,-2.09
2023-01-26T12:01:56.963Z,-2.21
2023-01-26T12:03:59.556Z,-2.22
2023-01-26T12:06:06.582Z,-2.24
2023-01-26T12:08:22.658Z,-2.28
2023-01-26T12:10:36.906Z,-2.26
2023-01-26T12:12:49.757Z,-2.30
2023-01-26T12:15:21.523Z,-2.30
2023-01-26T12:17:51.804Z,-2.35
2023-01-26T12:20:40.743Z,-2.40
2023-01-26T12:22:50.640Z,-2.38
2023-01-26T12:25:18.136Z,-2.38
2023-01-26T12:27:43.973Z,-2.36
2023-01-26T12:29:54.870Z,-2.41
2023-01-26T12:32:00.266Z,-2.38
2023-01-26T12:34:03.044Z,-2.39
2023-01-26T12:36:25.588Z,-2.41
2023-01-26T12:38:39.956Z,-2.43
2023-01-26T12:41:10.769Z,-2.51
2023-01-26T12:43:35.055Z,-2.57
2023-01-26T12:45:42.371Z,-2.58
2023-01-26T12:47:53.637Z,-2.63
2023-01-26T12:50:27.069Z,-2.66
2023-01-26T12:52:57.149Z,-2.73
2023-01-26T12:55:07.515Z,-2.75
2023-01-26T12:57:17.246Z,-2.78
2023-01-26T12:59:39.430Z,-2.78
2023-01-26T13:01:51.084Z,-2.80
2023-01-26T13:04:08.039Z,-2.82
2023-01-26T13:06:10.616Z,-2.84
2023-01-26T13:08:31.710Z,-2.89
2023-01-26T13:10:48.519Z,-2.98
2023-01-26T13:13:20.950Z,-2.94
2023-01-26T13:15:30.044Z,-2.97
2023-01-26T13:17:48.934Z,-2.97
2023-01-26T13:19:53.604Z,-2.99
2023-01-26T13:21:56.490Z,-3.00
2023-01-26T13:23:59.194Z,-3.02
2023-01-26T13:26:15.204Z,-3.01
2023-01-26T13:28:27.840Z,-3.02
2023-01-26T13:30:48.147Z,-3.03
2023-01-26T13:33:04.567Z,-3.03
2023-01-26T13:35:13.308Z,-3.07
2023-01-26T13:37:24.176Z,-3.03
2023-01-26T13:39:34.688Z,-3.06
2023-01-26T13:41:46.525Z,-3.05
2023-01-26T13:44:25.146Z,-3.06
2023-01-26T13:46:30.790Z,-3.04
2023-01-26T13:48:38.128Z,-3.13
2023-01-26T13:50:41.412Z,-3.05
2023-01-26T13:52:43.999Z,-3.09
2023-01-26T13:54:48.137Z,-3.09
2023-01-26T13:57:05.474Z,-3.07
2023-01-26T13:59:12.732Z,-3.09
2023-01-26T14:01:17.343Z,-3.07
2023-01-26T14:03:23.754Z,-3.04
2023-01-26T14:05:26.404Z,-3.06
2023-01-26T14:07:35.173Z,-3.06
2023-01-26T14:10:04.922Z,-3.09
2023-01-26T14:12:08.618Z,-3.11
2023-01-26T14:14:36.763Z,-3.11
2023-01-26T14:16:39.474Z,-3.11
2023-01-26T14:18:42.146Z,-3.16
2023-01-26T14:20:45.907Z,-3.12
2023-01-26T14:23:11.599Z,-3.13
2023-01-26T14:25:20.424Z,-3.14
2023-01-26T14:27:34.080Z,-3.16
2023-01-26T14:29:39.572Z,-3.15
2023-01-26T14:31:44.288Z,-3.13
2023-01-26T14:33:48.933Z,-3.11
2023-01-26T14:36:00.855Z,-3.11
2023-01-26T14:38:21.927Z,-3.12
2023-01-26T14:40:25.417Z,-3.15
2023-01-26T14:42:28.442Z,-3.15
2023-01-26T14:44:31.139Z,-3.14
2023-01-26T14:46:46.518Z,-3.13
2023-01-26T14:49:07.558Z,-3.23
2023-01-26T14:51:22.211Z,-3.20
2023-01-26T14:53:25.907Z,-3.20
2023-01-26T14:55:32.131Z,-3.21
2023-01-26T14:57:34.933Z,-3.17
2023-01-26T14:59:40.772Z,-3.16
2023-01-26T15:01:43.598Z,-3.15
2023-01-26T15:03:46.888Z,-3.13
2023-01-26T15:05:49.591Z,-3.13
2023-01-26T15:07:57.742Z,-3.13
2023-01-26T15:10:00.780Z,-3.15
2023-01-26T15:12:18.622Z,-3.14
2023-01-26T15:14:37.968Z,-3.16
2023-01-26T15:16:53.258Z,-3.14
2023-01-26T15:19:06.968Z,-3.13
2023-01-26T15:21:21.011Z,-3.13
2023-01-26T15:23:28.155Z,-3.12
2023-01-26T15:25:33.615Z,-3.12
2023-01-26T15:27:37.345Z,-3.17
2023-01-26T15:29:39.911Z,-3.15
2023-01-26T15:31:43.023Z,-3.15
2023-01-26T15:33:49.853Z,-3.13
2023-01-26T15:35:59.197Z,-3.10
2023-01-26T15:38:13.236Z,-3.11
2023-01-26T15:40:16.219Z,-3.11
2023-01-26T15:42:25.147Z,-3.09
2023-01-26T15:44:28.021Z,-3.07
2023-01-26T15:46:30.872Z,-3.04
2023-01-26T15:48:35.234Z,-3.07
2023-01-26T15:50:37.861Z,-3.03
2023-01-26T15:52:41.807Z,-3.09
2023-01-26T15:54:45.402Z,-3.02
2023-01-26T15:56:48.021Z,-3.00
2023-01-26T15:58:51.152Z,-3.00
2023-01-26T16:00:53.939Z,-3.01
2023-01-26T16:02:56.698Z,-3.01
2023-01-26T16:04:59.227Z,-3.00
2023-01-26T16:07:01.820Z,-2.99
2023-01-26T16:09:04.427Z,-2.97
2023-01-26T16:11:12.151Z,-3.00
2023-01-26T16:13:20.469Z,-2.96
2023-01-26T16:15:48.706Z,-2.98
2023-01-26T16:17:51.398Z,-2.99
2023-01-26T16:19:54.049Z,-2.98
2023-01-26T16:21:56.674Z,-2.98
2023-01-26T16:24:00.199Z,-3.04
2023-01-26T16:26:02.941Z,-2.98
2023-01-26T16:28:05.555Z,-2.98
2023-01-26T16:30:08.972Z,-3.00
2023-01-26T16:32:29.403Z,-2.99
2023-01-26T16:34:32.011Z,-2.99
2023-01-26T16:36:35.067Z,-2.96
2023-01-26T16:38:38.292Z,-2.95
2023-01-26T16:40:43.143Z,-2.94
2023-01-26T16:42:49.943Z,-2.90
2023-01-26T16:44:52.542Z,-2.92
2023-01-26T16:46:55.347Z,-2.88
2023-01-26T16:48:57.986Z,-2.87
2023-01-26T16:51:07.711Z,-2.86
2023-01-26T16:53:33.255Z,-2.86
2023-01-26T16:55:35.841Z,-2.85
2023-01-26T16:57:46.275Z,-2.83
2023-01-26T16:59:48.920Z,-2.82
2023-01-26T17:01:51.717Z,-2.82
2023-01-26T17:03:56.249Z,-2.79
2023-01-26T17:05:59.116Z,-2.80
2023-01-26T17:08:02.144Z,-2.80
2023-01-26T17:10:05.829Z,-2.74
2023-01-26T17:12:10.817Z,-2.74
2023-01-26T17:14:13.468Z,-2.72
2023-01-26T17:16:19.406Z,-2.72
2023-01-26T17:18:22.089Z,-2.71
2023-01-26T17:20:24.728Z,-2.71
2023-01-26T17:22:31.051Z,-2.69
2023-01-26T17:24:33.727Z,-2.67
2023-01-26T17:26:36.665Z,-2.69
2023-01-26T17:28:39.503Z,-2.67
2023-01-26T17:30:42.353Z,-2.65
2023-01-26T17:32:45.085Z,-2.67
2023-01-26T17:34:47.620Z,-2.65
2023-01-26T17:36:50.219Z,-2.62
2023-01-26T17:38:53.340Z,-2.59
2023-01-26T17:40:57.329Z,-2.58
2023-01-26T17:42:59.843Z,-2.57
2023-01-26T17:45:04.299Z,-2.53
2023-01-26T17:47:10.398Z,-2.51
2023-01-26T17:49:13.828Z,-2.50
2023-01-26T17:51:19.323Z,-2.47
2023-01-26T17:53:24.487Z,-2.50
2023-01-26T17:55:27.038Z,-2.44
2023-01-26T17:57:29.707Z,-2.45
2023-01-26T17:59:32.251Z,-2.44
2023-01-26T18:01:34.792Z,-2.45
2023-01-26T18:03:41.351Z,-2.45
2023-01-26T18:05:54.299Z,-2.45
2023-01-26T18:07:56.889Z,-2.45
2023-01-26T18:10:00.137Z,-2.44
2023-01-26T18:12:02.846Z,-2.42
2023-01-26T18:14:05.643Z,-2.43
2023-01-26T18:16:09.978Z,-2.42
2023-01-26T18:18:13.334Z,-2.41
2023-01-26T18:20:16.004Z,-2.42
2023-01-26T18:22:18.739Z,-2.40
2023-01-26T18:24:21.433Z,-2.41
2023-01-26T18:26:27.218Z,-2.39
2023-01-26T18:28:30.289Z,-2.40
2023-01-26T18:30:33.397Z,-2.39
2023-01-26T18:32:37.138Z,-2.42
2023-01-26T18:34:43.699Z,-2.37
2023-01-26T18:36:46.259Z,-2.41
2023-01-26T18:38:54.851Z,-2.37
2023-01-26T18:40:57.495Z,-2.35
2023-01-26T18:43:00.123Z,-2.36
2023-01-26T18:45:02.861Z,-2.36
2023-01-26T18:47:08.502Z,-2.35
2023-01-26T18:49:11.412Z,-2.35
2023-01-26T18:51:14.432Z,-2.33
2023-01-26T18:53:17.082Z,-2.34
2023-01-26T18:55:20.406Z,-2.36
2023-01-26T18:57:22.942Z,-2.32
2023-01-26T18:59:25.554Z,-2.31
2023-01-26T19:01:28.253Z,-2.32
2023-01-26T19:03:30.829Z,-2.30
2023-01-26T19:05:33.471Z,-2.30
2023-01-26T19:07:36.164Z,-2.27
2023-01-26T19:09:39.237Z,-2.25
2023-01-26T19:11:41.799Z,-2.23
2023-01-26T19:13:46.874Z,-2.22
2023-01-26T19:15:50.013Z,-2.27
2023-01-26T19:17:52.557Z,-2.26
2023-01-26T19:19:55.361Z,-2.25
2023-01-26T19:21:58.197Z,-2.24
2023-01-26T19:24:05.828Z,-2.23
2023-01-26T19:26:13.100Z,-2.24
2023-01-26T19:28:15.671Z,-2.24
2023-01-26T19:30:18.531Z,-2.27
2023-01-26T19:32:21.262Z,-2.24
2023-01-26T19:34:24.550Z,-2.23
2023-01-26T19:36:29.709Z,-2.25
2023-01-26T19:38:33.507Z,-2.27
2023-01-26T19:40:36.301Z,-2.25
2023-01-26T19:42:38.902Z,-2.27
2023-01-26T19:44:41.554Z,-2.29
2023-01-26T19:46:44.180Z,-2.31
2023-01-26T19:48:46.820Z,-2.30
2023-01-26T19:51:05.550Z,-2.34
2023-01-26T19:53:08.141Z,-2.36
2023-01-26T19:55:10.963Z,-2.39
2023-01-26T19:57:13.640Z,-2.38
2023-01-26T19:59:16.259Z,-2.38
2023-01-26T20:01:19.823Z,-2.36
2023-01-26T20:03:24.484Z,-2.37
2023-01-26T20:05:27.086Z,-2.38
2023-01-26T20:07:29.873Z,-2.40
2023-01-26T20:09:33.586Z,-2.40
2023-01-26T20:11:36.409Z,-2.39
2023-01-26T20:13:39.262Z,-2.40
2023-01-26T20:15:42.815Z,-2.36
2023-01-26T20:17:46.082Z,-2.37
2023-01-26T20:19:48.778Z,-2.36
2023-01-26T20:21:51.519Z,-2.38
2023-01-26T20:23:56.027Z,-2.36
2023-01-26T20:26:11.299Z,-2.38
2023-01-26T20:28:14.757Z,-2.37
2023-01-26T20:30:17.929Z,-2.37
2023-01-26T20:32:20.552Z,-2.38
2023-01-26T20:34:24.321Z,-2.38
2023-01-26T20:36:28.715Z,-2.40
2023-01-26T20:38:32.179Z,-2.38
2023-01-26T20:40:34.780Z,-2.38
2023-01-26T20:42:37.352Z,-2.38
2023-01-26T20:44:41.867Z,-2.36
2023-01-26T20:46:45.917Z,-2.35
2023-01-26T20:48:48.560Z,-2.34
2023-01-26T20:50:52.804Z,-2.32
2023-01-26T20:52:55.632Z,-2.35
2023-01-26T20:54:58.263Z,-2.31
2023-01-26T20:57:00.990Z,-2.30
2023-01-26T20:59:04.957Z,-2.31
2023-01-26T21:01:13.469Z,-2.32
2023-01-26T21:03:16.366Z,-2.30
2023-01-26T21:05:19.765Z,-2.34
2023-01-26T21:07:22.449Z,-2.34
2023-01-26T21:09:25.062Z,-2.34
2023-01-26T21:11:30.797Z,-2.36
2023-01-26T21:13:33.861Z,-2.38
2023-01-26T21:15:36.489Z,-2.38
2023-01-26T21:17:39.017Z,-2.43
2023-01-26T21:19:41.608Z,-2.46
2023-01-26T21:21:44.737Z,-2.48
2023-01-26T21:23:47.954Z,-2.48
2023-01-26T21:25:51.038Z,-2.47
2023-01-26T21:27:53.630Z,-2.46
2023-01-26T21:29:56.253Z,-2.44
2023-01-26T21:31:58.975Z,-2.46
2023-01-26T21:34:01.892Z,-2.51
2023-01-26T21:36:06.401Z,-2.50
2023-01-26T21:38:09.019Z,-2.53
2023-01-26T21:40:12.255Z,-2.56
2023-01-26T21:42:15.593Z,-2.55
2023-01-26T21:44:21.162Z,-2.56
2023-01-26T21:46:23.790Z,-2.56
2023-01-26T21:48:32.191Z,-2.60
2023-01-26T21:50:55.114Z,-2.61
2023-01-26T21:52:58.456Z,-2.62
2023-01-26T21:55:01.124Z,-2.67
2023-01-26T21:57:28.220Z,-2.67
2023-01-26T21:59:31.037Z,-2.72
2023-01-26T22:01:45.398Z,-2.71
2023-01-26T22:03:48.554Z,-2.79
2023-01-26T22:05:53.985Z,-2.79
2023-01-26T22:07:56.531Z,-2.76
2023-01-26T22:09:59.125Z,-2.82
2023-01-26T22:12:02.051Z,-2.80
2023-01-26T22:14:04.926Z,-2.84
2023-01-26T22:16:07.880Z,-2.86
2023-01-26T22:18:10.467Z,-2.88
2023-01-26T22:20:13.478Z,-2.90
2023-01-26T22:22:16.231Z,-2.90
2023-01-26T22:24:19.044Z,-2.97
2023-01-26T22:26:23.617Z,-2.95
2023-01-26T22:28:26.314Z,-2.95
2023-01-26T22:30:29.132Z,-2.96
2023-01-26T22:32:31.817Z,-3.01
2023-01-26T22:34:34.795Z,-3.00
2023-01-26T22:36:37.832Z,-3.01
2023-01-26T22:38:40.458Z,-3.04
2023-01-26T22:40:42.983Z,-3.03
2023-01-26T22:42:45.599Z,-3.03
2023-01-26T22:44:48.143Z,-3.05
2023-01-26T22:46:52.736Z,-3.01
2023-01-26T22:48:57.561Z,-3.08
2023-01-26T22:51:30.594Z,-3.08
2023-01-26T22:53:33.221Z,-3.08
2023-01-26T22:55:40.260Z,-3.10
2023-01-26T22:57:42.891Z,-3.08
2023-01-26T22:59:45.493Z,-3.07
2023-01-26T23:01:48.059Z,-3.09
2023-01-26T23:03:53.068Z,-3.14
2023-01-26T23:05:59.900Z,-3.10
2023-01-26T23:08:02.618Z,-3.08
2023-01-26T23:10:05.762Z,-3.10
2023-01-26T23:12:08.482Z,-3.10
2023-01-26T23:14:11.132Z,-3.09
2023-01-26T23:16:14.201Z,-3.11
2023-01-26T23:18:16.842Z,-3.07
2023-01-26T23:20:20.930Z,-3.11
2023-01-26T23:22:23.728Z,-3.12
2023-01-26T23:24:26.373Z,-3.16
2023-01-26T23:26:29.078Z,-3.13
2023-01-26T23:28:34.913Z,-3.16
2023-01-26T23:30:37.556Z,-3.16
2023-01-26T23:32:40.211Z,-3.19
2023-01-26T23:34:42.823Z,-3.17
2023-01-26T23:36:45.428Z,-3.15
2023-01-26T23:38:48.136Z,-3.16
2023-01-26T23:40:51.304Z,-3.16
2023-01-26T23:43:07.149Z,-3.14
2023-01-26T23:45:17.103Z,-3.14
2023-01-26T23:47:20.342Z,-3.14
2023-01-26T23:49:23.093Z,-3.20
2023-01-26T23:51:25.736Z,-3.22
2023-01-26T23:53:29.782Z,-3.23
2023-01-26T23:55:32.435Z,-3.26
2023-01-26T23:57:36.368Z,-3.33
2023-01-26T23:59:38.951Z,-3.35
